Time;durP1;ratioP1;P1;durP2;ratioP2;P2;SDS_P1;SDS_P2;PMS_P1;PMS_P2;Temp;Humidity;BMP_temperature;BMP_pressure;BME280_temperature;BME280_humidity;BME280_pressure;Samples;Min_cycle;Max_cycle;Signal;HPM_P1;HPM_P2
2021/09/30 00:00:40;;;;;;;0.65;0.43;;;12.80;92.20;;;;;;5092999;28;20039;-74
2021/09/30 00:03:06;;;;;;;0.65;0.57;;;12.70;92.20;;;;;;5086362;28;20079;-74
2021/09/30 00:05:32;;;;;;;1.95;0.70;;;12.70;92.20;;;;;;5085266;28;20061;-74
2021/09/30 00:07:57;;;;;;;3.45;0.98;;;12.70;92.20;;;;;;5081015;28;20036;-74
2021/09/30 00:10:24;;;;;;;6.75;1.38;;;12.80;92.10;;;;;;5076766;28;20079;-74
2021/09/30 00:13:01;;;;;;;9.27;1.40;;;12.80;92.10;;;;;;5090092;28;20075;-74
2021/09/30 00:15:34;;;;;;;1.95;0.70;;;12.70;92.10;;;;;;5081593;28;20527;-74
2021/09/30 00:34:21;;;;;;;6.93;1.23;;;12.70;92.50;;;;;;5076910;28;20028;-74
2021/09/30 00:42:10;;;;;;;5.30;1.00;;;12.50;92.80;;;;;;5091792;28;20020;-74
2021/09/30 00:53:14;;;;;;;4.68;0.77;;;12.50;93.00;;;;;;5076960;28;20506;-74
2021/09/30 02:18:24;;;;;;;3.58;0.50;;;12.90;91.10;;;;;;5073119;28;20119;-74
2021/09/30 02:34:35;;;;;;;2.65;0.82;;;12.80;90.80;;;;;;5088357;28;20063;-74
2021/09/30 02:59:35;;;;;;;1.55;0.60;;;12.30;91.70;;;;;;5074376;28;20032;-74
2021/09/30 03:02:06;;;;;;;2.20;1.13;;;12.30;91.70;;;;;;5084289;28;20032;-74
2021/09/30 03:04:33;;;;;;;0.60;0.32;;;12.30;91.60;;;;;;5078373;28;20048;-74
2021/09/30 03:07:00;;;;;;;2.65;1.42;;;12.40;91.70;;;;;;5078596;28;20040;-74
2021/09/30 03:09:41;;;;;;;3.83;0.75;;;12.40;91.60;;;;;;5086893;28;20035;-74
2021/09/30 03:12:18;;;;;;;0.30;0.30;;;12.40;91.50;;;;;;5078329;28;20025;-74
2021/09/30 03:14:48;;;;;;;0.55;0.55;;;12.40;91.40;;;;;;5081169;28;20020;-74
2021/09/30 03:17:19;;;;;;;0.40;0.40;;;12.50;91.30;;;;;;5077809;28;20161;-74
2021/09/30 03:19:59;;;;;;;0.35;0.35;;;12.50;91.30;;;;;;5091036;28;20080;-74
2021/09/30 03:22:27;;;;;;;1.67;0.70;;;12.60;91.20;;;;;;5091075;28;20024;-74
2021/09/30 03:24:54;;;;;;;1.63;0.70;;;12.60;91.10;;;;;;5077472;28;20399;-74
2021/09/30 03:27:21;;;;;;;6.43;1.23;;;12.60;91.10;;;;;;5082011;28;20107;-74
2021/09/30 03:29:47;;;;;;;6.25;1.17;;;12.70;91.10;;;;;;5087315;28;20475;-74
2021/09/30 03:32:14;;;;;;;5.97;0.68;;;12.80;91.00;;;;;;5083763;28;20029;-74
2021/09/30 03:35:04;;;;;;;6.03;1.13;;;12.90;90.90;;;;;;5090122;28;20021;-77
2021/09/30 03:37:29;;;;;;;2.95;0.60;;;12.90;90.70;;;;;;5076491;28;20037;-74
2021/09/30 03:39:55;;;;;;;4.80;0.88;;;13.00;90.40;;;;;;5088876;28;20398;-74
2021/09/30 03:42:21;;;;;;;7.63;0.65;;;13.00;90.30;;;;;;5092412;28;20495;-74
2021/09/30 03:44:55;;;;;;;4.22;1.55;;;13.00;90.20;;;;;;5087371;28;20032;-74
2021/09/30 03:47:20;;;;;;;10.95;0.85;;;13.00;90.10;;;;;;5077232;28;20356;-75
2021/09/30 03:49:52;;;;;;;5.07;1.05;;;13.00;89.90;;;;;;5088188;28;20027;-78
2021/09/30 04:00:42;;;;;;;1.58;0.80;;;12.60;90.50;;;;;;5088456;28;20021;-75
2021/09/30 04:03:08;;;;;;;4.05;1.17;;;12.50;90.60;;;;;;5076020;28;20028;-75
2021/09/30 04:05:37;;;;;;;5.65;1.00;;;12.40;90.70;;;;;;5075241;28;20119;-75
2021/09/30 04:08:03;;;;;;;1.88;0.93;;;12.30;90.80;;;;;;5081822;28;20530;-75
2021/09/30 04:10:29;;;;;;;3.65;0.90;;;12.20;90.90;;;;;;5077217;28;20514;-75
2021/09/30 04:12:55;;;;;;;0.77;0.55;;;12.20;91.00;;;;;;5074986;28;20028;-75
2021/09/30 04:15:21;;;;;;;1.33;1.10;;;12.20;91.00;;;;;;5090256;28;20016;-75
2021/09/30 04:17:48;;;;;;;0.52;0.52;;;12.10;91.10;;;;;;5074644;28;20045;-75
2021/09/30 04:20:17;;;;;;;1.13;0.70;;;12.10;91.10;;;;;;5081695;28;20372;-75
2021/09/30 04:22:44;;;;;;;2.22;0.68;;;12.10;91.10;;;;;;5081423;28;20032;-75
2021/09/30 04:25:10;;;;;;;1.83;0.70;;;12.10;91.20;;;;;;5080457;28;20031;-75
2021/09/30 04:27:36;;;;;;;0.40;0.40;;;12.10;91.40;;;;;;5086178;28;20484;-75
2021/09/30 04:30:03;;;;;;;0.38;0.20;;;12.10;91.20;;;;;;5082117;28;20036;-75
2021/09/30 04:32:37;;;;;;;3.22;0.68;;;12.20;91.20;;;;;;5084008;28;20074;-76
2021/09/30 04:35:04;;;;;;;0.50;0.50;;;12.20;91.20;;;;;;5076015;28;20029;-75
2021/09/30 04:37:29;;;;;;;2.25;0.77;;;12.20;91.20;;;;;;5086299;28;20135;-80
2021/09/30 04:39:57;;;;;;;1.75;0.77;;;12.20;91.10;;;;;;5089738;28;20068;-76
2021/09/30 04:42:23;;;;;;;5.25;0.85;;;12.20;91.10;;;;;;5081973;28;20055;-75
2021/09/30 04:44:49;;;;;;;3.20;0.88;;;12.20;91.10;;;;;;5084946;28;20419;-75
2021/09/30 04:47:15;;;;;;;0.40;0.40;;;12.20;91.10;;;;;;5079278;28;20028;-75
2021/09/30 04:49:47;;;;;;;1.38;0.63;;;12.20;91.00;;;;;;5087097;28;20035;-75
2021/09/30 04:52:13;;;;;;;1.10;0.40;;;12.20;91.00;;;;;;5076716;28;20035;-75
2021/09/30 04:54:39;;;;;;;0.45;0.45;;;12.20;91.00;;;;;;5079841;28;20029;-75
2021/09/30 04:57:05;;;;;;;2.17;0.55;;;12.20;90.90;;;;;;5076576;28;20024;-75
2021/09/30 04:59:33;;;;;;;0.28;0.28;;;12.20;90.90;;;;;;5072948;28;20024;-75
2021/09/30 05:02:18;;;;;;;2.70;0.77;;;12.30;90.80;;;;;;5085468;28;20039;-75
2021/09/30 05:04:44;;;;;;;4.13;0.55;;;12.30;90.80;;;;;;5077230;28;20039;-83
2021/09/30 05:07:11;;;;;;;0.55;0.47;;;12.30;90.80;;;;;;5084878;28;20026;-83
2021/09/30 05:09:38;;;;;;;0.30;0.30;;;12.30;90.80;;;;;;5075788;28;20130;-81
2021/09/30 05:12:06;;;;;;;0.80;0.50;;;12.30;90.70;;;;;;5078524;28;20043;-74
2021/09/30 05:14:34;;;;;;;0.45;0.45;;;12.30;90.70;;;;;;5086127;28;20078;-75
2021/09/30 05:17:00;;;;;;;1.45;0.50;;;12.20;90.60;;;;;;5086745;28;20466;-76
2021/09/30 05:19:43;;;;;;;1.17;0.82;;;12.20;90.60;;;;;;5085937;28;20433;-73
2021/09/30 05:22:11;;;;;;;1.38;1.00;;;12.20;90.60;;;;;;5083221;28;20039;-73
2021/09/30 05:24:37;;;;;;;1.85;0.85;;;12.20;90.60;;;;;;5086856;28;20024;-79
2021/09/30 05:27:03;;;;;;;4.90;1.10;;;12.20;90.70;;;;;;5078576;28;20081;-76
2021/09/30 05:29:29;;;;;;;1.20;0.88;;;12.10;90.60;;;;;;5078507;28;20111;-78
2021/09/30 05:32:15;;;;;;;1.45;0.65;;;12.10;90.70;;;;;;5075112;28;20032;-74
2021/09/30 05:34:52;;;;;;;1.98;0.80;;;12.10;90.70;;;;;;5082044;28;20534;-73
2021/09/30 05:37:20;;;;;;;1.33;0.85;;;12.20;90.80;;;;;;5073215;28;20537;-83
2021/09/30 05:39:45;;;;;;;1.63;0.52;;;12.10;90.80;;;;;;5085084;28;20052;-78
2021/09/30 05:42:13;;;;;;;0.50;0.50;;;12.10;90.70;;;;;;5085711;28;20032;-78
2021/09/30 05:44:39;;;;;;;3.85;0.85;;;12.10;91.00;;;;;;5086077;28;20061;-72
2021/09/30 05:47:05;;;;;;;0.82;0.38;;;12.10;90.80;;;;;;5089251;28;20723;-72
2021/09/30 05:49:32;;;;;;;2.40;0.63;;;12.10;90.80;;;;;;5078516;28;20032;-72
2021/09/30 05:52:24;;;;;;;6.13;0.63;;;12.10;90.80;;;;;;5074033;28;20032;-72
2021/09/30 05:55:12;;;;;;;5.07;0.88;;;12.00;90.90;;;;;;5066795;28;20403;-72
2021/09/30 05:57:38;;;;;;;1.15;1.00;;;12.00;91.00;;;;;;5074228;28;20044;-73
2021/09/30 06:00:24;;;;;;;5.22;1.17;;;12.00;91.10;;;;;;5072831;28;20028;-72
2021/09/30 06:10:54;;;;;;;0.73;0.73;;;11.70;91.90;;;;;;5088029;28;20399;-72
2021/09/30 06:16:23;;;;;;;0.20;0.20;;;11.70;92.00;;;;;;5030715;28;20079;-72
2021/09/30 06:18:53;;;;;;;2.08;0.68;;;11.80;92.00;;;;;;5081315;28;20040;-72
2021/09/30 06:21:28;;;;;;;1.05;0.70;;;11.90;91.90;;;;;;5089698;28;20024;-72
2021/09/30 06:23:53;;;;;;;7.78;1.70;;;11.90;91.80;;;;;;5090860;28;20028;-72
2021/09/30 06:26:20;;;;;;;0.82;0.50;;;12.00;91.70;;;;;;5088049;28;20035;-72
2021/09/30 06:29:08;;;;;;;0.50;0.40;;;12.00;91.60;;;;;;5087076;28;20077;-72
2021/09/30 06:31:35;;;;;;;0.98;0.80;;;12.00;91.60;;;;;;5089306;28;20498;-72
2021/09/30 06:34:24;;;;;;;1.33;0.55;;;12.10;91.50;;;;;;5078282;28;20070;-72
2021/09/30 06:37:00;;;;;;;0.93;0.43;;;12.10;91.40;;;;;;5085194;28;20024;-72
2021/09/30 06:39:25;;;;;;;10.60;0.85;;;12.10;91.30;;;;;;5083897;28;20051;-72
2021/09/30 06:41:51;;;;;;;2.10;0.80;;;12.10;91.30;;;;;;5077657;28;20387;-72
2021/09/30 06:44:35;;;;;;;0.32;0.32;;;12.10;91.30;;;;;;5077537;28;20066;-72
2021/09/30 06:47:19;;;;;;;0.30;0.30;;;12.10;91.30;;;;;;5084636;28;20534;-72
2021/09/30 06:49:45;;;;;;;6.53;1.70;;;12.10;91.30;;;;;;5075763;28;20040;-72
2021/09/30 06:52:31;;;;;;;0.20;0.20;;;12.10;91.30;;;;;;5083589;28;20086;-72
2021/09/30 06:55:05;;;;;;;0.30;0.30;;;12.20;91.30;;;;;;5072992;28;20024;-72
2021/09/30 06:57:51;;;;;;;1.10;0.50;;;12.20;91.20;;;;;;5073152;28;20051;-72
2021/09/30 07:00:42;;;;;;;0.63;0.43;;;12.20;91.20;;;;;;5087334;28;20020;-72
2021/09/30 07:03:28;;;;;;;3.33;0.98;;;12.20;91.30;;;;;;5075139;28;20070;-72
2021/09/30 07:06:19;;;;;;;2.83;1.02;;;12.20;91.40;;;;;;5078465;28;20028;-72
2021/09/30 07:08:45;;;;;;;2.95;0.68;;;12.20;91.40;;;;;;5077377;28;20127;-72
2021/09/30 07:11:10;;;;;;;1.17;0.80;;;12.20;91.60;;;;;;5079185;28;20024;-72
2021/09/30 07:13:36;;;;;;;3.50;1.23;;;12.20;91.60;;;;;;5089852;28;20032;-72
2021/09/30 07:16:02;;;;;;;0.57;0.52;;;12.20;91.80;;;;;;5076777;28;20077;-72
2021/09/30 07:18:28;;;;;;;2.80;1.05;;;12.20;91.80;;;;;;5084563;28;20046;-72
2021/09/30 07:21:00;;;;;;;11.27;0.90;;;12.20;91.90;;;;;;5085675;28;20028;-73
2021/09/30 07:23:26;;;;;;;6.53;1.48;;;12.20;92.00;;;;;;5091377;28;20039;-72
2021/09/30 07:25:52;;;;;;;0.57;0.57;;;12.20;92.10;;;;;;5091435;28;20391;-72
2021/09/30 07:28:19;;;;;;;1.88;1.00;;;12.20;92.10;;;;;;5090499;28;20024;-72
2021/09/30 07:30:48;;;;;;;4.53;1.25;;;12.20;92.20;;;;;;5083130;28;20429;-72
2021/09/30 07:33:14;;;;;;;6.03;1.35;;;12.20;92.20;;;;;;5085323;28;20356;-73
2021/09/30 07:35:40;;;;;;;4.68;1.30;;;12.20;92.20;;;;;;5080344;28;20368;-72
2021/09/30 07:38:06;;;;;;;0.55;0.50;;;12.20;92.30;;;;;;5079043;28;20514;-73
2021/09/30 07:40:32;;;;;;;1.38;0.73;;;12.20;92.40;;;;;;5073645;28;20036;-73
2021/09/30 07:42:58;;;;;;;3.92;1.33;;;12.20;92.40;;;;;;5073879;28;20086;-73
2021/09/30 07:45:24;;;;;;;5.32;1.23;;;12.30;92.50;;;;;;5089960;28;20479;-73
2021/09/30 07:47:50;;;;;;;2.97;1.02;;;12.30;92.60;;;;;;5081061;28;20029;-73
2021/09/30 07:50:16;;;;;;;4.47;1.35;;;12.30;92.60;;;;;;5073944;28;20028;-77
2021/09/30 07:52:42;;;;;;;10.68;1.88;;;12.30;92.70;;;;;;5074345;28;20033;-73
2021/09/30 07:55:09;;;;;;;1.15;1.02;;;12.30;92.70;;;;;;5084864;28;20039;-73
2021/09/30 07:57:34;;;;;;;3.25;1.05;;;12.40;92.70;;;;;;5072848;28;20790;-73
2021/09/30 08:00:00;;;;;;;1.92;0.82;;;12.40;92.70;;;;;;5072603;28;20028;-73
2021/09/30 08:02:26;;;;;;;3.72;0.80;;;12.40;92.70;;;;;;5072635;28;20032;-73
2021/09/30 08:04:51;;;;;;;4.53;1.42;;;12.50;92.70;;;;;;5074505;28;20029;-72
2021/09/30 08:07:17;;;;;;;4.78;0.75;;;12.50;92.70;;;;;;5074206;28;20032;-73
2021/09/30 08:09:43;;;;;;;6.95;1.15;;;12.50;92.70;;;;;;5070729;28;20051;-73
2021/09/30 08:12:09;;;;;;;3.22;1.25;;;12.60;92.80;;;;;;5083568;28;20055;-73
2021/09/30 08:14:35;;;;;;;7.10;1.17;;;12.60;92.80;;;;;;5086725;28;20111;-73
2021/09/30 08:17:01;;;;;;;4.63;1.30;;;12.60;92.80;;;;;;5078826;28;20037;-73
2021/09/30 08:19:27;;;;;;;1.17;1.08;;;12.60;92.80;;;;;;5076112;28;20036;-73
2021/09/30 08:21:52;;;;;;;11.60;1.70;;;12.60;92.90;;;;;;5089420;28;20024;-73
2021/09/30 08:24:20;;;;;;;2.53;1.25;;;12.60;92.90;;;;;;5081740;28;20464;-73
2021/09/30 08:26:46;;;;;;;3.85;1.25;;;12.70;93.00;;;;;;5077278;28;20527;-73
2021/09/30 08:29:14;;;;;;;6.00;1.30;;;12.70;93.00;;;;;;5085052;28;20063;-72
2021/09/30 08:31:39;;;;;;;9.63;1.55;;;12.70;93.00;;;;;;5093751;28;20489;-73
2021/09/30 08:34:05;;;;;;;6.32;1.15;;;12.70;93.00;;;;;;5095018;28;20036;-72
2021/09/30 08:36:32;;;;;;;4.25;1.63;;;12.70;93.10;;;;;;5093608;28;20030;-72
2021/09/30 08:38:58;;;;;;;8.88;1.25;;;12.80;93.10;;;;;;5081537;28;20135;-72
2021/09/30 08:41:24;;;;;;;5.10;1.10;;;12.80;93.10;;;;;;5082937;28;20020;-72
2021/09/30 08:43:51;;;;;;;4.43;1.27;;;12.80;93.20;;;;;;5075818;28;20067;-73
2021/09/30 08:46:17;;;;;;;3.50;1.10;;;12.80;93.20;;;;;;5075143;28;20032;-73
2021/09/30 08:48:43;;;;;;;4.07;1.30;;;12.90;93.20;;;;;;5077076;28;20035;-73
2021/09/30 08:51:11;;;;;;;4.18;1.58;;;12.90;93.20;;;;;;5086638;28;20040;-73
2021/09/30 08:53:37;;;;;;;3.97;1.42;;;13.00;93.20;;;;;;5078313;28;20507;-72
2021/09/30 08:56:06;;;;;;;7.10;1.60;;;13.00;93.20;;;;;;5075208;28;20079;-72
2021/09/30 08:58:32;;;;;;;3.42;1.17;;;13.10;93.20;;;;;;5075729;28;20047;-73
2021/09/30 09:00:59;;;;;;;6.25;1.33;;;13.10;93.20;;;;;;5082488;28;20352;-73
2021/09/30 09:03:48;;;;;;;3.80;1.17;;;13.20;93.20;;;;;;5081303;28;20191;-73
2021/09/30 09:06:33;;;;;;;3.85;0.98;;;13.20;93.20;;;;;;5082416;28;20028;-73
2021/09/30 09:09:25;;;;;;;9.32;1.17;;;13.30;93.20;;;;;;5090756;28;20031;-73
2021/09/30 09:11:53;;;;;;;1.85;0.95;;;13.30;93.20;;;;;;5073223;28;20357;-73
2021/09/30 09:14:30;;;;;;;4.43;1.25;;;13.30;93.20;;;;;;5088763;28;20482;-73
2021/09/30 09:16:58;;;;;;;6.15;1.08;;;13.40;93.20;;;;;;5075865;28;20028;-73
2021/09/30 09:19:30;;;;;;;6.43;1.40;;;13.40;93.20;;;;;;5080283;28;20168;-76
2021/09/30 09:21:56;;;;;;;5.85;1.98;;;13.50;93.30;;;;;;5092702;28;20035;-76
2021/09/30 09:24:21;;;;;;;7.55;1.60;;;13.50;93.30;;;;;;5077253;28;20036;-74
2021/09/30 09:26:47;;;;;;;3.10;1.30;;;13.50;93.20;;;;;;5087370;28;20067;-74
2021/09/30 09:29:15;;;;;;;5.00;1.42;;;13.60;93.20;;;;;;5084994;28;20035;-74
2021/09/30 09:31:43;;;;;;;5.88;1.05;;;13.60;93.10;;;;;;5083038;28;20029;-74
2021/09/30 09:34:28;;;;;;;6.22;1.67;;;13.60;93.20;;;;;;5084631;28;20028;-74
2021/09/30 09:37:14;;;;;;;6.97;1.77;;;13.60;93.20;;;;;;5080054;28;20152;-74
2021/09/30 09:39:40;;;;;;;5.70;1.02;;;13.70;93.20;;;;;;5076635;28;20057;-74
2021/09/30 09:42:14;;;;;;;7.13;1.30;;;13.70;93.20;;;;;;5074515;28;20349;-74
2021/09/30 09:45:16;;;;;;;6.05;1.17;;;13.70;93.20;;;;;;5074041;28;20036;-74
2021/09/30 09:47:46;;;;;;;6.22;1.35;;;13.80;93.20;;;;;;5069684;28;20472;-74
2021/09/30 09:50:22;;;;;;;3.42;0.95;;;13.80;93.10;;;;;;5083481;28;20036;-74
2021/09/30 09:52:55;;;;;;;5.78;1.50;;;13.90;93.00;;;;;;5085510;28;20437;-74
2021/09/30 09:55:33;;;;;;;6.17;1.20;;;13.80;92.90;;;;;;5075818;28;20200;-74
2021/09/30 09:58:10;;;;;;;5.15;1.00;;;13.90;92.90;;;;;;5084809;28;20358;-74
2021/09/30 10:00:58;;;;;;;4.95;1.00;;;14.00;92.80;;;;;;5076096;28;20103;-74
2021/09/30 10:03:27;;;;;;;1.50;1.10;;;14.00;92.80;;;;;;5077521;28;20058;-74
2021/09/30 10:05:54;;;;;;;2.60;0.90;;;14.10;92.60;;;;;;5086425;28;20031;-76
2021/09/30 10:08:20;;;;;;;3.95;1.17;;;14.10;92.60;;;;;;5082438;28;20031;-73
2021/09/30 10:10:49;;;;;;;2.40;0.77;;;14.20;92.40;;;;;;5075624;28;20468;-73
2021/09/30 10:13:16;;;;;;;3.20;0.95;;;14.30;92.40;;;;;;5081874;28;20382;-78
2021/09/30 10:15:43;;;;;;;4.07;1.10;;;14.30;92.30;;;;;;5079185;28;20521;-73
2021/09/30 10:18:11;;;;;;;4.07;1.23;;;14.30;92.30;;;;;;5076064;28;20143;-73
2021/09/30 10:20:39;;;;;;;3.10;1.38;;;14.40;92.20;;;;;;5074730;28;20024;-73
2021/09/30 10:23:07;;;;;;;7.35;1.33;;;14.30;92.00;;;;;;5074704;28;20020;-73
2021/09/30 10:25:38;;;;;;;2.92;1.30;;;14.40;91.90;;;;;;5072494;28;20111;-73
2021/09/30 10:28:08;;;;;;;2.70;1.15;;;14.40;91.70;;;;;;5074788;28;20028;-72
2021/09/30 10:30:41;;;;;;;3.28;1.27;;;14.40;91.40;;;;;;5073337;28;20048;-73
2021/09/30 10:33:10;;;;;;;9.75;1.48;;;14.40;91.40;;;;;;5076057;28;20102;-73
2021/09/30 10:35:44;;;;;;;4.60;1.63;;;14.40;91.40;;;;;;5073344;28;20066;-73
2021/09/30 10:38:17;;;;;;;2.70;0.90;;;14.40;91.40;;;;;;5076037;28;20064;-72
2021/09/30 10:41:02;;;;;;;6.53;1.58;;;14.50;91.40;;;;;;5077940;28;20111;-73
2021/09/30 10:43:28;;;;;;;6.20;1.25;;;14.50;91.40;;;;;;5076584;28;20024;-73
2021/09/30 10:45:54;;;;;;;1.95;0.90;;;14.50;91.30;;;;;;5080325;28;20064;-73
2021/09/30 10:48:30;;;;;;;4.93;1.17;;;14.50;91.20;;;;;;5075085;28;20060;-73
2021/09/30 10:50:59;;;;;;;4.07;1.23;;;14.60;91.20;;;;;;5079890;28;20032;-73
2021/09/30 10:53:48;;;;;;;5.47;1.20;;;14.60;91.10;;;;;;5090834;28;20078;-74
2021/09/30 10:56:41;;;;;;;2.08;0.90;;;14.70;91.10;;;;;;5066483;28;20033;-73
2021/09/30 10:59:07;;;;;;;4.25;1.40;;;14.80;91.10;;;;;;5086727;28;20035;-73
2021/09/30 11:01:33;;;;;;;5.07;1.20;;;14.80;90.70;;;;;;5072736;28;20025;-73
2021/09/30 11:04:04;;;;;;;6.45;1.58;;;14.80;90.30;;;;;;5087274;28;20031;-73
2021/09/30 11:06:30;;;;;;;6.05;1.33;;;14.80;90.30;;;;;;5081710;28;20020;-79
2021/09/30 11:09:16;;;;;;;6.65;1.30;;;14.80;89.80;;;;;;5085288;28;20077;-80
2021/09/30 11:12:10;;;;;;;9.85;1.38;;;14.90;90.00;;;;;;5074268;28;20032;-81
2021/09/30 11:14:55;;;;;;;5.20;1.10;;;14.90;89.40;;;;;;5085984;28;20047;-78
2021/09/30 11:17:39;;;;;;;4.35;1.30;;;15.00;89.20;;;;;;5082108;28;20047;-74
2021/09/30 11:20:33;;;;;;;6.78;1.55;;;14.90;89.20;;;;;;5075035;28;20040;-72
2021/09/30 11:22:59;;;;;;;;;;;15.10;89.10;;;;;;5074820;28;20074;-73
2021/09/30 11:26:02;;;;;;;1.38;0.77;;;15.10;89.00;;;;;;5076342;28;19908;-72
2021/09/30 11:28:28;;;;;;;3.42;1.25;;;15.20;88.80;;;;;;5077767;28;20071;-72
2021/09/30 11:31:24;;;;;;;5.30;1.50;;;15.20;87.80;;;;;;5085294;28;20471;-72
2021/09/30 11:33:52;;;;;;;6.45;1.27;;;15.20;87.80;;;;;;5074768;28;20379;-73
2021/09/30 11:36:18;;;;;;;5.20;1.17;;;15.30;87.70;;;;;;5078111;28;20063;-72
2021/09/30 11:38:44;;;;;;;4.50;1.10;;;15.40;86.80;;;;;;5075041;28;20072;-74
2021/09/30 11:41:10;;;;;;;7.35;1.45;;;15.40;86.30;;;;;;5073870;28;20075;-73
2021/09/30 11:43:36;;;;;;;2.08;1.08;;;15.50;86.80;;;;;;5077582;28;20028;-79
2021/09/30 11:46:26;;;;;;;4.18;1.05;;;15.60;86.00;;;;;;5072773;28;20496;-74
2021/09/30 11:48:54;;;;;;;4.30;0.60;;;15.70;85.90;;;;;;5078505;28;20032;-73
2021/09/30 11:51:29;;;;;;;1.92;1.13;;;15.70;86.30;;;;;;5074705;28;20064;-73
2021/09/30 11:53:54;;;;;;;6.90;1.27;;;15.80;86.20;;;;;;5081483;28;20063;-73
2021/09/30 11:56:20;;;;;;;3.75;1.35;;;15.90;86.40;;;;;;5078916;28;20033;-74
2021/09/30 11:58:58;;;;;;;5.93;1.23;;;15.90;84.90;;;;;;5084456;28;20096;-73
2021/09/30 12:01:40;;;;;;;5.13;1.38;;;15.90;83.80;;;;;;5078216;28;20491;-75
2021/09/30 12:04:06;;;;;;;3.72;1.08;;;15.90;83.20;;;;;;5081699;28;20032;-74
2021/09/30 12:06:47;;;;;;;3.53;0.82;;;16.00;83.10;;;;;;5081092;28;20460;-74
2021/09/30 12:09:15;;;;;;;6.43;1.67;;;16.00;83.00;;;;;;5080327;28;20064;-74
2021/09/30 12:11:53;;;;;;;3.90;0.98;;;16.00;82.80;;;;;;5076040;28;20051;-74
2021/09/30 12:14:19;;;;;;;2.67;1.00;;;16.10;82.80;;;;;;5076480;28;20785;-77
2021/09/30 12:16:56;;;;;;;1.58;0.80;;;16.20;82.40;;;;;;5080572;28;20123;-77
2021/09/30 12:19:45;;;;;;;4.13;0.98;;;16.20;81.70;;;;;;5076046;28;20032;-74
2021/09/30 12:22:24;;;;;;;4.63;0.85;;;16.20;82.10;;;;;;5090088;28;20028;-75
2021/09/30 12:24:54;;;;;;;0.70;0.47;;;16.30;82.90;;;;;;5075861;28;20041;-75
2021/09/30 12:27:23;;;;;;;3.00;0.80;;;16.40;82.90;;;;;;5076026;28;20039;-74
2021/09/30 12:29:53;;;;;;;4.78;1.08;;;16.50;83.10;;;;;;5082038;28;20024;-73
2021/09/30 12:32:23;;;;;;;2.88;0.85;;;16.50;82.90;;;;;;5077877;28;20025;-73
2021/09/30 12:34:58;;;;;;;0.30;0.30;;;16.60;83.30;;;;;;5084403;28;20124;-73
2021/09/30 12:37:38;;;;;;;8.07;0.90;;;16.60;82.60;;;;;;5078106;28;20399;-73
2021/09/30 12:40:07;;;;;;;2.55;1.00;;;16.70;82.30;;;;;;5074781;28;20040;-73
2021/09/30 12:42:34;;;;;;;1.13;0.77;;;16.70;81.60;;;;;;5076318;28;20037;-73
2021/09/30 12:45:00;;;;;;;4.47;1.02;;;16.80;82.10;;;;;;5076641;28;20029;-73
2021/09/30 12:47:40;;;;;;;1.02;0.55;;;16.80;82.60;;;;;;5077361;28;21007;-73
2021/09/30 12:50:13;;;;;;;1.77;0.65;;;16.90;82.10;;;;;;5080140;28;20031;-73
2021/09/30 12:52:40;;;;;;;0.55;0.55;;;17.00;82.30;;;;;;5078814;28;20476;-73
2021/09/30 12:55:15;;;;;;;5.75;1.25;;;17.00;82.40;;;;;;5077746;28;20046;-73
2021/09/30 12:57:40;;;;;;;2.65;0.82;;;17.00;81.80;;;;;;5074034;28;20028;-72
2021/09/30 13:00:17;;;;;;;1.02;0.50;;;17.10;81.10;;;;;;5079487;28;20086;-73
2021/09/30 13:02:43;;;;;;;0.82;0.38;;;17.10;80.50;;;;;;5080526;28;20028;-77
2021/09/30 13:05:10;;;;;;;1.77;0.52;;;17.10;81.20;;;;;;5076855;28;20081;-74
2021/09/30 13:08:05;;;;;;;3.20;0.65;;;17.10;80.90;;;;;;5078207;28;20035;-73
2021/09/30 13:10:34;;;;;;;3.53;1.10;;;17.20;81.40;;;;;;5069162;28;20037;-73
2021/09/30 13:13:14;;;;;;;4.93;1.27;;;17.30;80.60;;;;;;5076634;28;20031;-73
2021/09/30 13:15:45;;;;;;;1.75;0.90;;;17.20;80.20;;;;;;5072773;28;20412;-79
2021/09/30 13:18:16;;;;;;;2.88;0.70;;;17.20;79.70;;;;;;5080279;28;20044;-80
2021/09/30 13:21:01;;;;;;;2.53;0.80;;;17.20;79.80;;;;;;5074653;28;20024;-74
2021/09/30 13:23:28;;;;;;;0.95;0.73;;;17.20;79.60;;;;;;5077578;28;20036;-72
2021/09/30 13:25:54;;;;;;;2.20;0.80;;;17.20;79.10;;;;;;5079339;28;20039;-72
2021/09/30 13:28:20;;;;;;;3.00;0.82;;;17.20;79.20;;;;;;5076381;28;20020;-75
2021/09/30 13:30:46;;;;;;;2.90;0.80;;;17.20;78.80;;;;;;5075065;28;20043;-76
2021/09/30 13:33:13;;;;;;;1.65;0.77;;;17.20;79.20;;;;;;5079540;28;20051;-72
2021/09/30 13:35:39;;;;;;;0.90;0.47;;;17.30;79.90;;;;;;5082553;28;20483;-72
2021/09/30 13:38:05;;;;;;;3.85;0.93;;;17.40;80.30;;;;;;5082857;28;20414;-71
2021/09/30 13:40:31;;;;;;;8.75;1.30;;;17.40;80.40;;;;;;5080299;28;20021;-72
2021/09/30 13:42:56;;;;;;;3.08;0.82;;;17.40;79.20;;;;;;5082381;28;20395;-72
2021/09/30 13:45:23;;;;;;;4.97;1.23;;;17.30;79.70;;;;;;5079056;28;20024;-72
2021/09/30 13:47:49;;;;;;;3.13;0.90;;;17.40;80.00;;;;;;5073430;28;20052;-72
2021/09/30 13:50:18;;;;;;;2.28;0.82;;;17.40;79.60;;;;;;5086902;28;20031;-72
2021/09/30 13:52:46;;;;;;;8.18;0.98;;;17.40;80.10;;;;;;5085030;28;20052;-72
2021/09/30 13:55:14;;;;;;;4.63;1.23;;;17.40;80.00;;;;;;5088475;28;20032;-72
2021/09/30 13:57:40;;;;;;;2.72;0.93;;;17.40;80.00;;;;;;5082505;28;20465;-71
2021/09/30 14:00:08;;;;;;;2.45;1.00;;;17.40;79.60;;;;;;5075161;28;20568;-72
2021/09/30 14:02:35;;;;;;;8.93;1.10;;;17.40;79.60;;;;;;5082362;28;20024;-73
2021/09/30 14:05:02;;;;;;;2.40;0.70;;;17.40;79.80;;;;;;5086445;28;20024;-71
2021/09/30 14:07:28;;;;;;;1.33;0.60;;;17.40;80.10;;;;;;5078722;28;20025;-71
2021/09/30 14:09:53;;;;;;;4.82;1.17;;;17.40;80.10;;;;;;5079271;28;20038;-71
2021/09/30 14:12:19;;;;;;;5.10;1.20;;;17.40;80.10;;;;;;5077509;28;20150;-71
2021/09/30 14:14:46;;;;;;;3.90;1.17;;;17.40;79.90;;;;;;5076339;28;20823;-71
2021/09/30 14:17:11;;;;;;;2.50;0.60;;;17.40;79.70;;;;;;5073188;28;20461;-71
2021/09/30 14:19:37;;;;;;;3.53;0.85;;;17.40;79.80;;;;;;5074891;28;20119;-71
2021/09/30 14:22:04;;;;;;;3.92;1.05;;;17.40;79.80;;;;;;5077174;28;20028;-71
2021/09/30 14:24:31;;;;;;;7.00;1.20;;;17.30;79.90;;;;;;5074373;28;20078;-74
2021/09/30 14:26:58;;;;;;;3.78;0.93;;;17.30;79.60;;;;;;5072595;28;20407;-71
2021/09/30 14:29:23;;;;;;;1.63;0.80;;;17.30;79.90;;;;;;5075831;28;20497;-71
2021/09/30 14:31:49;;;;;;;2.30;0.52;;;17.30;79.40;;;;;;5075488;28;20036;-71
2021/09/30 14:34:15;;;;;;;2.05;0.70;;;17.20;79.60;;;;;;5073330;28;20044;-71
2021/09/30 14:36:40;;;;;;;2.20;1.00;;;17.30;80.80;;;;;;5077611;28;20031;-71
2021/09/30 14:39:06;;;;;;;3.20;1.02;;;17.30;80.50;;;;;;5077911;28;20120;-70
2021/09/30 14:41:33;;;;;;;2.10;1.23;;;17.30;79.60;;;;;;5078851;28;20063;-71
2021/09/30 14:43:58;;;;;;;5.80;1.30;;;17.20;79.30;;;;;;5072424;28;20032;-70
2021/09/30 14:46:24;;;;;;;3.85;0.90;;;17.20;79.20;;;;;;5071816;28;20047;-71
2021/09/30 14:48:51;;;;;;;5.57;1.30;;;17.10;78.90;;;;;;5075251;28;20608;-70
2021/09/30 14:51:16;;;;;;;6.85;1.38;;;17.00;79.00;;;;;;5081741;28;20027;-72
2021/09/30 14:53:42;;;;;;;3.42;1.27;;;17.10;79.00;;;;;;5075951;28;20028;-71
2021/09/30 14:56:09;;;;;;;5.78;1.35;;;17.00;79.20;;;;;;5077764;28;20027;-72
2021/09/30 14:58:35;;;;;;;2.38;0.93;;;16.90;78.90;;;;;;5076949;28;20395;-71
2021/09/30 15:01:03;;;;;;;0.45;0.45;;;16.90;78.90;;;;;;5087997;28;20031;-71
2021/09/30 15:03:29;;;;;;;1.10;0.82;;;16.90;80.00;;;;;;5072754;28;20036;-71
2021/09/30 15:05:54;;;;;;;3.20;0.70;;;16.90;79.30;;;;;;5072340;28;20077;-72
2021/09/30 15:08:20;;;;;;;4.72;1.00;;;16.80;79.20;;;;;;5076162;28;20490;-72
2021/09/30 15:10:46;;;;;;;2.00;0.60;;;16.80;79.10;;;;;;5077556;28;20028;-72
2021/09/30 15:13:11;;;;;;;2.50;0.65;;;16.80;79.60;;;;;;5075755;28;20033;-71
2021/09/30 15:15:37;;;;;;;5.60;1.42;;;16.80;79.90;;;;;;5073490;28;20028;-71
2021/09/30 15:23:04;;;;;;;8.45;1.58;;;16.90;80.10;;;;;;5072432;28;20541;-71
2021/09/30 15:25:30;;;;;;;7.95;1.27;;;16.90;80.10;;;;;;5070917;28;20021;-72
2021/09/30 15:27:59;;;;;;;1.58;0.65;;;16.90;80.00;;;;;;5072916;28;20077;-72
2021/09/30 15:30:25;;;;;;;5.22;1.67;;;16.80;80.30;;;;;;5074107;28;20024;-72
2021/09/30 15:32:53;;;;;;;1.75;0.65;;;16.80;80.50;;;;;;5079233;28;20024;-72
2021/09/30 15:35:19;;;;;;;4.35;1.05;;;16.80;80.30;;;;;;5086776;28;20034;-72
2021/09/30 15:37:45;;;;;;;2.92;1.15;;;16.80;80.30;;;;;;5081874;28;20040;-72
2021/09/30 15:40:12;;;;;;;1.85;0.82;;;16.80;80.30;;;;;;5080083;28;20036;-72
2021/09/30 15:42:38;;;;;;;2.10;1.05;;;16.80;80.30;;;;;;5086017;28;20487;-72
2021/09/30 15:45:04;;;;;;;5.35;1.63;;;16.80;80.70;;;;;;5079398;28;20032;-72
2021/09/30 15:47:30;;;;;;;3.53;0.98;;;16.90;80.40;;;;;;5074527;28;20020;-72
2021/09/30 15:49:56;;;;;;;1.65;1.13;;;16.90;80.50;;;;;;5073448;28;20471;-73
2021/09/30 15:52:21;;;;;;;2.05;1.08;;;16.80;80.50;;;;;;5084100;28;20025;-72
2021/09/30 15:54:47;;;;;;;3.53;0.95;;;16.90;80.70;;;;;;5083592;28;20398;-72
2021/09/30 15:57:13;;;;;;;6.68;1.10;;;16.80;80.40;;;;;;5078414;28;20025;-72